This is the latest recevied weather packets stored in our database for station/object K0UND-1. If no packets are shown the sender has not sent any weather packets the latest 10 day(s).
| Time | Temp. | Humidity | Pressure | Rain* | Wind** | Luminosity | Snow |
|---|---|---|---|---|---|---|---|
| 1777564807 | 3.89° C | 48% | 1020.7 hPa | 0 mm | - | - | - |
| 1777561210 | 2.78° C | 65% | 1020.7 hPa | 0 mm | - | - | - |
| 1777557607 | 2.22° C | 75% | 1020.7 hPa | 0 mm | - | - | - |
| 1777554007 | 1.11° C | 80% | 1020.3 hPa | 0 mm | - | - | - |
| 1777550420 | 1.11° C | 75% | 1020.3 hPa | 0 mm | - | - | - |
| 1777546820 | 1.11° C | 69% | 1020.7 hPa | 0 mm | - | - | - |
| 1777543206 | 0° C | 74% | 1020.7 hPa | 0 mm | - | - | - |
| 1777539611 | 1.11° C | 69% | 1020.7 hPa | 0 mm | - | - | - |
| 1777536012 | -1.11° C | 80% | 1020.7 hPa | 0 mm | - | - | - |
| 1777532409 | -1.11° C | 69% | 1020.7 hPa | 0 mm | - | - | - |
| 1777528809 | 0° C | 69% | 1020.7 hPa | 0 mm | - | - | - |
| 1777525213 | 0° C | 69% | 1020.3 hPa | 0 mm | - | - | - |
| 1777521605 | 0° C | 69% | 1020.3 hPa | 0 mm | - | - | - |
| 1777518012 | 2.78° C | 60% | 1020.3 hPa | 0 mm | - | - | - |
| 1777514408 | 2.78° C | 60% | 1020 hPa | 0 mm | - | - | - |
| 1777510821 | 5° C | 52% | 1019.6 hPa | 0 mm | - | - | - |
| 1777507209 | 7.22° C | 42% | 1019.6 hPa | 0 mm | - | - | - |
| 1777503614 | 7.22° C | 42% | 1019.6 hPa | 0 mm | - | - | - |
| 1777500006 | 7.22° C | 42% | 1019.6 hPa | 0 mm | - | - | - |
| 1777496410 | 7.22° C | 42% | 1019.6 hPa | 0 mm | - | - | - |
| 1777492808 | 7.22° C | 45% | 1020 hPa | 0 mm | - | - | - |
| 1777489214 | 7.22° C | 42% | 1020 hPa | 0 mm | - | - | - |
| 1777485605 | 6.11° C | 42% | 1020.3 hPa | 0 mm | - | - | - |
| 1777482005 | 6.11° C | 45% | 1020.3 hPa | 0 mm | - | - | - |
| 1777478429 | 5° C | 52% | 1020.7 hPa | 0 mm | - | - | - |
* Rain latest hour (hover to see other rain measurements)
** Current wind speed in m/s (hover to see current wind gust speed)